sensor_id;sensor_type;location;lat;lon;timestamp;P1;durP1;ratioP1;P2;durP2;ratioP2
71937;SDS011;59810;48.800;9.086;2023-04-23T00:01:05;4.80;;;1.70;;
71937;SDS011;59810;48.800;9.086;2023-04-23T00:03:32;5.85;;;1.88;;
71937;SDS011;59810;48.800;9.086;2023-04-23T00:06:06;5.20;;;2.05;;
71937;SDS011;59810;48.800;9.086;2023-04-23T00:08:36;5.97;;;1.85;;
71937;SDS011;59810;48.800;9.086;2023-04-23T00:11:07;7.23;;;1.90;;
71937;SDS011;59810;48.800;9.086;2023-04-23T00:13:34;4.65;;;1.85;;
71937;SDS011;59810;48.800;9.086;2023-04-23T00:16:00;4.57;;;1.58;;
71937;SDS011;59810;48.800;9.086;2023-04-23T00:18:30;6.82;;;1.92;;
71937;SDS011;59810;48.800;9.086;2023-04-23T00:20:55;5.80;;;1.60;;
71937;SDS011;59810;48.800;9.086;2023-04-23T00:23:21;4.63;;;1.87;;
71937;SDS011;59810;48.800;9.086;2023-04-23T00:25:46;7.67;;;1.70;;
71937;SDS011;59810;48.800;9.086;2023-04-23T00:28:12;4.87;;;1.60;;
71937;SDS011;59810;48.800;9.086;2023-04-23T00:30:37;4.90;;;1.80;;
71937;SDS011;59810;48.800;9.086;2023-04-23T00:33:03;6.72;;;1.85;;
71937;SDS011;59810;48.800;9.086;2023-04-23T00:35:28;4.47;;;1.50;;
71937;SDS011;59810;48.800;9.086;2023-04-23T00:37:54;4.50;;;1.60;;
71937;SDS011;59810;48.800;9.086;2023-04-23T00:40:19;7.03;;;1.92;;
71937;SDS011;59810;48.800;9.086;2023-04-23T00:42:45;5.43;;;1.73;;
71937;SDS011;59810;48.800;9.086;2023-04-23T00:45:11;5.00;;;1.60;;
71937;SDS011;59810;48.800;9.086;2023-04-23T00:47:36;5.37;;;1.53;;
71937;SDS011;59810;48.800;9.086;2023-04-23T00:50:04;5.50;;;1.88;;
71937;SDS011;59810;48.800;9.086;2023-04-23T00:52:30;6.35;;;1.73;;
71937;SDS011;59810;48.800;9.086;2023-04-23T00:54:55;5.67;;;1.43;;
71937;SDS011;59810;48.800;9.086;2023-04-23T00:57:21;6.03;;;1.80;;
71937;SDS011;59810;48.800;9.086;2023-04-23T00:59:50;6.32;;;1.52;;
71937;SDS011;59810;48.800;9.086;2023-04-23T01:02:16;4.50;;;1.70;;
71937;SDS011;59810;48.800;9.086;2023-04-23T01:04:42;6.00;;;1.87;;
71937;SDS011;59810;48.800;9.086;2023-04-23T01:07:10;8.60;;;1.83;;
71937;SDS011;59810;48.800;9.086;2023-04-23T01:09:39;4.90;;;1.73;;
71937;SDS011;59810;48.800;9.086;2023-04-23T01:12:05;4.20;;;1.37;;
71937;SDS011;59810;48.800;9.086;2023-04-23T01:14:30;5.68;;;1.88;;
71937;SDS011;59810;48.800;9.086;2023-04-23T01:16:57;5.07;;;1.90;;
71937;SDS011;59810;48.800;9.086;2023-04-23T01:19:22;5.50;;;1.77;;
71937;SDS011;59810;48.800;9.086;2023-04-23T01:21:48;5.00;;;1.60;;
71937;SDS011;59810;48.800;9.086;2023-04-23T01:24:16;5.85;;;1.90;;
71937;SDS011;59810;48.800;9.086;2023-04-23T01:26:44;7.32;;;1.60;;
71937;SDS011;59810;48.800;9.086;2023-04-23T01:29:10;4.03;;;1.42;;
71937;SDS011;59810;48.800;9.086;2023-04-23T01:31:36;6.03;;;1.67;;
71937;SDS011;59810;48.800;9.086;2023-04-23T01:34:02;4.40;;;1.60;;
71937;SDS011;59810;48.800;9.086;2023-04-23T01:36:27;4.67;;;1.80;;
71937;SDS011;59810;48.800;9.086;2023-04-23T01:38:54;5.40;;;1.70;;
71937;SDS011;59810;48.800;9.086;2023-04-23T01:41:19;3.53;;;1.53;;
71937;SDS011;59810;48.800;9.086;2023-04-23T01:43:45;4.30;;;1.60;;
71937;SDS011;59810;48.800;9.086;2023-04-23T01:46:10;5.25;;;1.70;;
71937;SDS011;59810;48.800;9.086;2023-04-23T01:48:36;4.30;;;1.53;;
71937;SDS011;59810;48.800;9.086;2023-04-23T01:51:04;3.58;;;1.48;;
71937;SDS011;59810;48.800;9.086;2023-04-23T01:53:30;4.60;;;1.48;;
71937;SDS011;59810;48.800;9.086;2023-04-23T01:55:57;5.10;;;1.47;;
71937;SDS011;59810;48.800;9.086;2023-04-23T01:58:24;5.75;;;1.35;;
71937;SDS011;59810;48.800;9.086;2023-04-23T02:00:50;4.80;;;1.50;;
71937;SDS011;59810;48.800;9.086;2023-04-23T02:03:17;7.22;;;1.42;;
71937;SDS011;59810;48.800;9.086;2023-04-23T02:05:43;6.30;;;1.83;;
71937;SDS011;59810;48.800;9.086;2023-04-23T02:08:09;3.55;;;1.50;;
71937;SDS011;59810;48.800;9.086;2023-04-23T02:10:34;4.18;;;1.35;;
71937;SDS011;59810;48.800;9.086;2023-04-23T02:13:02;3.70;;;1.30;;
71937;SDS011;59810;48.800;9.086;2023-04-23T02:15:28;4.22;;;1.30;;
71937;SDS011;59810;48.800;9.086;2023-04-23T02:17:53;5.30;;;1.30;;
71937;SDS011;59810;48.800;9.086;2023-04-23T02:20:18;4.33;;;1.30;;
71937;SDS011;59810;48.800;9.086;2023-04-23T02:22:46;4.30;;;1.40;;
71937;SDS011;59810;48.800;9.086;2023-04-23T02:25:12;4.00;;;1.40;;
71937;SDS011;59810;48.800;9.086;2023-04-23T02:27:40;4.38;;;1.60;;
71937;SDS011;59810;48.800;9.086;2023-04-23T02:30:06;3.57;;;1.10;;
71937;SDS011;59810;48.800;9.086;2023-04-23T02:32:35;4.20;;;1.58;;
71937;SDS011;59810;48.800;9.086;2023-04-23T02:35:01;4.28;;;1.60;;
71937;SDS011;59810;48.800;9.086;2023-04-23T02:37:31;3.95;;;1.52;;
71937;SDS011;59810;48.800;9.086;2023-04-23T02:39:57;3.33;;;1.52;;
71937;SDS011;59810;48.800;9.086;2023-04-23T02:42:25;4.07;;;1.47;;
71937;SDS011;59810;48.800;9.086;2023-04-23T02:44:50;4.45;;;1.50;;
71937;SDS011;59810;48.800;9.086;2023-04-23T02:47:16;4.50;;;1.53;;
71937;SDS011;59810;48.800;9.086;2023-04-23T02:49:41;5.30;;;1.83;;
71937;SDS011;59810;48.800;9.086;2023-04-23T02:52:06;4.17;;;1.40;;
71937;SDS011;59810;48.800;9.086;2023-04-23T02:54:36;3.45;;;1.48;;
71937;SDS011;59810;48.800;9.086;2023-04-23T02:57:02;4.07;;;1.60;;
71937;SDS011;59810;48.800;9.086;2023-04-23T02:59:31;5.32;;;1.70;;
71937;SDS011;59810;48.800;9.086;2023-04-23T03:01:56;3.47;;;1.40;;
71937;SDS011;59810;48.800;9.086;2023-04-23T03:04:22;3.80;;;1.75;;
71937;SDS011;59810;48.800;9.086;2023-04-23T03:06:47;3.80;;;1.60;;
71937;SDS011;59810;48.800;9.086;2023-04-23T03:09:13;4.70;;;1.77;;
71937;SDS011;59810;48.800;9.086;2023-04-23T03:11:38;3.80;;;1.40;;
71937;SDS011;59810;48.800;9.086;2023-04-23T03:14:03;5.22;;;1.20;;
71937;SDS011;59810;48.800;9.086;2023-04-23T03:16:29;6.60;;;1.80;;
71937;SDS011;59810;48.800;9.086;2023-04-23T03:18:56;4.43;;;1.40;;
71937;SDS011;59810;48.800;9.086;2023-04-23T03:21:22;3.03;;;1.10;;
71937;SDS011;59810;48.800;9.086;2023-04-23T03:23:47;4.40;;;1.58;;
71937;SDS011;59810;48.800;9.086;2023-04-23T03:26:12;3.43;;;1.17;;
71937;SDS011;59810;48.800;9.086;2023-04-23T03:28:38;3.63;;;1.40;;
71937;SDS011;59810;48.800;9.086;2023-04-23T03:31:03;3.53;;;1.20;;
71937;SDS011;59810;48.800;9.086;2023-04-23T03:33:28;3.60;;;1.10;;
71937;SDS011;59810;48.800;9.086;2023-04-23T03:35:54;3.53;;;1.00;;
71937;SDS011;59810;48.800;9.086;2023-04-23T03:38:19;2.87;;;1.00;;
71937;SDS011;59810;48.800;9.086;2023-04-23T03:40:45;6.27;;;1.10;;
71937;SDS011;59810;48.800;9.086;2023-04-23T03:43:10;2.60;;;0.93;;
71937;SDS011;59810;48.800;9.086;2023-04-23T03:45:38;3.17;;;1.00;;
71937;SDS011;59810;48.800;9.086;2023-04-23T03:48:03;4.63;;;0.97;;
71937;SDS011;59810;48.800;9.086;2023-04-23T03:50:29;3.50;;;1.10;;
71937;SDS011;59810;48.800;9.086;2023-04-23T03:52:55;4.50;;;1.00;;
71937;SDS011;59810;48.800;9.086;2023-04-23T03:55:23;2.65;;;0.88;;
71937;SDS011;59810;48.800;9.086;2023-04-23T03:57:51;3.93;;;0.87;;
71937;SDS011;59810;48.800;9.086;2023-04-23T04:00:16;3.15;;;0.82;;
71937;SDS011;59810;48.800;9.086;2023-04-23T04:02:44;2.67;;;0.95;;
71937;SDS011;59810;48.800;9.086;2023-04-23T04:05:10;3.73;;;0.90;;
71937;SDS011;59810;48.800;9.086;2023-04-23T04:07:35;4.45;;;1.02;;
71937;SDS011;59810;48.800;9.086;2023-04-23T04:10:01;2.93;;;1.00;;
71937;SDS011;59810;48.800;9.086;2023-04-23T04:12:27;3.05;;;0.80;;
71937;SDS011;59810;48.800;9.086;2023-04-23T04:14:53;4.30;;;0.90;;
71937;SDS011;59810;48.800;9.086;2023-04-23T04:17:18;4.00;;;1.10;;
71937;SDS011;59810;48.800;9.086;2023-04-23T04:19:44;2.87;;;0.87;;
71937;SDS011;59810;48.800;9.086;2023-04-23T04:22:14;2.55;;;0.90;;
71937;SDS011;59810;48.800;9.086;2023-04-23T04:24:40;3.37;;;0.90;;
71937;SDS011;59810;48.800;9.086;2023-04-23T04:27:08;2.75;;;0.90;;
71937;SDS011;59810;48.800;9.086;2023-04-23T04:29:33;3.45;;;1.00;;
71937;SDS011;59810;48.800;9.086;2023-04-23T04:31:59;2.27;;;0.60;;
71937;SDS011;59810;48.800;9.086;2023-04-23T04:34:27;3.33;;;0.80;;
71937;SDS011;59810;48.800;9.086;2023-04-23T04:36:52;2.58;;;0.65;;
71937;SDS011;59810;48.800;9.086;2023-04-23T04:39:21;1.90;;;0.60;;
71937;SDS011;59810;48.800;9.086;2023-04-23T04:41:46;2.15;;;0.80;;
71937;SDS011;59810;48.800;9.086;2023-04-23T04:44:12;2.47;;;0.80;;
71937;SDS011;59810;48.800;9.086;2023-04-23T04:46:38;2.75;;;0.70;;
71937;SDS011;59810;48.800;9.086;2023-04-23T04:49:10;1.90;;;0.80;;
71937;SDS011;59810;48.800;9.086;2023-04-23T04:51:36;2.20;;;0.60;;
71937;SDS011;59810;48.800;9.086;2023-04-23T04:54:05;2.10;;;0.70;;
71937;SDS011;59810;48.800;9.086;2023-04-23T04:56:32;1.97;;;0.67;;
71937;SDS011;59810;48.800;9.086;2023-04-23T04:58:58;2.85;;;1.10;;
71937;SDS011;59810;48.800;9.086;2023-04-23T05:01:26;1.83;;;0.68;;
71937;SDS011;59810;48.800;9.086;2023-04-23T05:03:55;2.10;;;0.70;;
71937;SDS011;59810;48.800;9.086;2023-04-23T05:06:21;3.33;;;0.75;;
71937;SDS011;59810;48.800;9.086;2023-04-23T05:08:47;2.10;;;0.83;;
71937;SDS011;59810;48.800;9.086;2023-04-23T05:11:16;3.07;;;1.07;;
71937;SDS011;59810;48.800;9.086;2023-04-23T05:13:43;2.75;;;0.90;;
71937;SDS011;59810;48.800;9.086;2023-04-23T05:16:08;2.83;;;0.88;;
71937;SDS011;59810;48.800;9.086;2023-04-23T05:18:34;2.13;;;0.80;;
71937;SDS011;59810;48.800;9.086;2023-04-23T05:21:00;3.40;;;1.03;;
71937;SDS011;59810;48.800;9.086;2023-04-23T05:23:25;2.53;;;0.60;;
71937;SDS011;59810;48.800;9.086;2023-04-23T05:25:51;2.70;;;0.75;;
71937;SDS011;59810;48.800;9.086;2023-04-23T05:28:20;3.73;;;0.90;;
71937;SDS011;59810;48.800;9.086;2023-04-23T05:30:48;2.65;;;0.73;;
71937;SDS011;59810;48.800;9.086;2023-04-23T05:33:14;3.00;;;0.90;;
71937;SDS011;59810;48.800;9.086;2023-04-23T05:35:40;1.83;;;0.70;;
71937;SDS011;59810;48.800;9.086;2023-04-23T05:38:05;3.63;;;0.90;;
71937;SDS011;59810;48.800;9.086;2023-04-23T05:40:31;2.37;;;0.90;;
71937;SDS011;59810;48.800;9.086;2023-04-23T05:42:59;2.30;;;0.70;;
71937;SDS011;59810;48.800;9.086;2023-04-23T05:45:25;4.03;;;0.95;;
71937;SDS011;59810;48.800;9.086;2023-04-23T05:47:50;2.57;;;0.70;;
71937;SDS011;59810;48.800;9.086;2023-04-23T05:50:16;3.70;;;0.83;;
71937;SDS011;59810;48.800;9.086;2023-04-23T05:52:41;2.22;;;0.80;;
71937;SDS011;59810;48.800;9.086;2023-04-23T05:55:07;2.60;;;0.70;;
71937;SDS011;59810;48.800;9.086;2023-04-23T05:57:35;2.42;;;0.80;;
71937;SDS011;59810;48.800;9.086;2023-04-23T06:00:04;3.60;;;0.80;;
71937;SDS011;59810;48.800;9.086;2023-04-23T06:02:35;2.40;;;0.80;;
71937;SDS011;59810;48.800;9.086;2023-04-23T06:05:02;2.50;;;0.90;;
71937;SDS011;59810;48.800;9.086;2023-04-23T06:07:27;3.88;;;1.30;;
71937;SDS011;59810;48.800;9.086;2023-04-23T06:09:55;4.95;;;1.30;;
71937;SDS011;59810;48.800;9.086;2023-04-23T06:12:20;2.60;;;0.90;;
71937;SDS011;59810;48.800;9.086;2023-04-23T06:14:45;2.43;;;0.80;;
71937;SDS011;59810;48.800;9.086;2023-04-23T06:17:11;2.00;;;0.60;;
71937;SDS011;59810;48.800;9.086;2023-04-23T06:19:37;1.80;;;0.60;;
71937;SDS011;59810;48.800;9.086;2023-04-23T06:22:04;1.65;;;0.57;;
71937;SDS011;59810;48.800;9.086;2023-04-23T06:24:30;2.27;;;0.73;;
71937;SDS011;59810;48.800;9.086;2023-04-23T06:26:56;3.28;;;0.70;;
71937;SDS011;59810;48.800;9.086;2023-04-23T06:29:25;1.97;;;0.60;;
71937;SDS011;59810;48.800;9.086;2023-04-23T06:31:53;2.17;;;0.70;;
71937;SDS011;59810;48.800;9.086;2023-04-23T06:34:19;1.45;;;0.70;;
71937;SDS011;59810;48.800;9.086;2023-04-23T06:36:44;1.27;;;0.40;;
71937;SDS011;59810;48.800;9.086;2023-04-23T06:39:14;3.80;;;0.60;;
71937;SDS011;59810;48.800;9.086;2023-04-23T06:41:40;1.88;;;0.60;;
71937;SDS011;59810;48.800;9.086;2023-04-23T06:44:05;2.47;;;0.57;;
71937;SDS011;59810;48.800;9.086;2023-04-23T06:46:33;1.77;;;0.68;;
71937;SDS011;59810;48.800;9.086;2023-04-23T06:48:58;2.20;;;0.73;;
71937;SDS011;59810;48.800;9.086;2023-04-23T06:51:24;1.93;;;0.50;;
71937;SDS011;59810;48.800;9.086;2023-04-23T06:53:52;2.70;;;1.25;;
71937;SDS011;59810;48.800;9.086;2023-04-23T06:56:18;1.83;;;0.60;;
71937;SDS011;59810;48.800;9.086;2023-04-23T06:58:44;2.45;;;0.80;;
71937;SDS011;59810;48.800;9.086;2023-04-23T07:01:09;3.47;;;0.93;;
71937;SDS011;59810;48.800;9.086;2023-04-23T07:03:35;1.98;;;0.70;;
71937;SDS011;59810;48.800;9.086;2023-04-23T07:06:03;1.50;;;0.50;;
71937;SDS011;59810;48.800;9.086;2023-04-23T07:08:31;5.93;;;1.60;;
71937;SDS011;59810;48.800;9.086;2023-04-23T07:10:59;5.07;;;1.80;;
71937;SDS011;59810;48.800;9.086;2023-04-23T07:13:25;2.72;;;0.88;;
71937;SDS011;59810;48.800;9.086;2023-04-23T07:15:51;1.97;;;0.73;;
71937;SDS011;59810;48.800;9.086;2023-04-23T07:18:16;4.23;;;0.93;;
71937;SDS011;59810;48.800;9.086;2023-04-23T07:20:42;3.70;;;1.27;;
71937;SDS011;59810;48.800;9.086;2023-04-23T07:23:11;2.08;;;0.70;;
71937;SDS011;59810;48.800;9.086;2023-04-23T07:25:37;3.95;;;0.80;;
71937;SDS011;59810;48.800;9.086;2023-04-23T07:28:02;2.93;;;0.70;;
71937;SDS011;59810;48.800;9.086;2023-04-23T07:30:28;2.55;;;0.80;;
71937;SDS011;59810;48.800;9.086;2023-04-23T07:32:54;2.60;;;0.73;;
71937;SDS011;59810;48.800;9.086;2023-04-23T07:35:22;3.10;;;0.80;;
71937;SDS011;59810;48.800;9.086;2023-04-23T07:37:50;2.75;;;0.93;;
71937;SDS011;59810;48.800;9.086;2023-04-23T07:40:20;3.20;;;0.77;;
71937;SDS011;59810;48.800;9.086;2023-04-23T07:42:46;2.17;;;0.90;;
71937;SDS011;59810;48.800;9.086;2023-04-23T07:45:12;2.83;;;1.13;;
71937;SDS011;59810;48.800;9.086;2023-04-23T07:47:38;2.72;;;1.10;;
71937;SDS011;59810;48.800;9.086;2023-04-23T07:50:06;2.67;;;0.90;;
71937;SDS011;59810;48.800;9.086;2023-04-23T07:52:32;3.73;;;1.07;;
71937;SDS011;59810;48.800;9.086;2023-04-23T07:54:57;2.90;;;0.90;;
71937;SDS011;59810;48.800;9.086;2023-04-23T07:57:22;3.00;;;0.90;;
71937;SDS011;59810;48.800;9.086;2023-04-23T07:59:48;4.27;;;1.10;;
71937;SDS011;59810;48.800;9.086;2023-04-23T08:02:15;2.40;;;1.00;;
71937;SDS011;59810;48.800;9.086;2023-04-23T08:04:42;2.65;;;1.10;;
71937;SDS011;59810;48.800;9.086;2023-04-23T08:07:07;2.70;;;0.90;;
71937;SDS011;59810;48.800;9.086;2023-04-23T08:09:33;3.33;;;1.07;;
71937;SDS011;59810;48.800;9.086;2023-04-23T08:11:58;3.97;;;1.00;;
71937;SDS011;59810;48.800;9.086;2023-04-23T08:14:26;2.97;;;1.20;;
71937;SDS011;59810;48.800;9.086;2023-04-23T08:16:51;2.55;;;0.90;;
71937;SDS011;59810;48.800;9.086;2023-04-23T08:19:17;2.90;;;1.10;;
71937;SDS011;59810;48.800;9.086;2023-04-23T08:21:42;3.00;;;1.00;;
71937;SDS011;59810;48.800;9.086;2023-04-23T08:24:10;2.50;;;1.00;;
71937;SDS011;59810;48.800;9.086;2023-04-23T08:26:35;2.83;;;1.00;;
71937;SDS011;59810;48.800;9.086;2023-04-23T08:29:00;2.47;;;0.90;;
71937;SDS011;59810;48.800;9.086;2023-04-23T08:31:29;2.33;;;1.00;;
71937;SDS011;59810;48.800;9.086;2023-04-23T08:33:56;2.65;;;0.93;;
71937;SDS011;59810;48.800;9.086;2023-04-23T08:36:22;3.23;;;1.47;;
71937;SDS011;59810;48.800;9.086;2023-04-23T08:38:47;4.07;;;1.13;;
71937;SDS011;59810;48.800;9.086;2023-04-23T08:41:13;3.93;;;1.37;;
71937;SDS011;59810;48.800;9.086;2023-04-23T08:46:22;3.10;;;1.20;;
71937;SDS011;59810;48.800;9.086;2023-04-23T08:48:49;4.03;;;1.05;;
71937;SDS011;59810;48.800;9.086;2023-04-23T08:51:17;2.90;;;1.15;;
71937;SDS011;59810;48.800;9.086;2023-04-23T08:53:43;3.50;;;1.00;;
71937;SDS011;59810;48.800;9.086;2023-04-23T08:56:12;3.78;;;1.40;;
71937;SDS011;59810;48.800;9.086;2023-04-23T08:58:38;2.80;;;1.17;;
71937;SDS011;59810;48.800;9.086;2023-04-23T09:01:05;2.95;;;0.90;;
71937;SDS011;59810;48.800;9.086;2023-04-23T09:03:33;2.67;;;1.00;;
71937;SDS011;59810;48.800;9.086;2023-04-23T09:06:00;2.47;;;1.00;;
71937;SDS011;59810;48.800;9.086;2023-04-23T09:08:25;2.67;;;1.17;;
71937;SDS011;59810;48.800;9.086;2023-04-23T09:10:53;3.20;;;1.30;;
71937;SDS011;59810;48.800;9.086;2023-04-23T09:13:24;2.75;;;1.10;;
71937;SDS011;59810;48.800;9.086;2023-04-23T09:15:51;3.08;;;1.00;;
71937;SDS011;59810;48.800;9.086;2023-04-23T09:18:17;2.97;;;1.20;;
71937;SDS011;59810;48.800;9.086;2023-04-23T09:20:44;2.72;;;1.23;;
71937;SDS011;59810;48.800;9.086;2023-04-23T09:23:12;4.37;;;1.00;;
71937;SDS011;59810;48.800;9.086;2023-04-23T09:25:38;4.10;;;1.05;;
71937;SDS011;59810;48.800;9.086;2023-04-23T09:28:05;3.00;;;1.20;;
71937;SDS011;59810;48.800;9.086;2023-04-23T09:30:31;4.78;;;1.38;;
71937;SDS011;59810;48.800;9.086;2023-04-23T09:33:03;2.95;;;1.20;;
71937;SDS011;59810;48.800;9.086;2023-04-23T09:35:31;3.25;;;1.10;;
71937;SDS011;59810;48.800;9.086;2023-04-23T09:37:59;3.90;;;1.60;;
71937;SDS011;59810;48.800;9.086;2023-04-23T09:40:31;4.20;;;1.27;;
71937;SDS011;59810;48.800;9.086;2023-04-23T09:42:57;2.90;;;1.10;;
71937;SDS011;59810;48.800;9.086;2023-04-23T09:45:22;2.80;;;1.30;;
71937;SDS011;59810;48.800;9.086;2023-04-23T09:47:57;2.97;;;1.10;;
71937;SDS011;59810;48.800;9.086;2023-04-23T09:50:33;2.53;;;1.02;;
71937;SDS011;59810;48.800;9.086;2023-04-23T09:52:58;3.97;;;1.00;;
71937;SDS011;59810;48.800;9.086;2023-04-23T09:55:30;2.70;;;1.05;;
71937;SDS011;59810;48.800;9.086;2023-04-23T09:58:01;3.23;;;1.10;;
71937;SDS011;59810;48.800;9.086;2023-04-23T10:00:31;5.35;;;1.10;;
71937;SDS011;59810;48.800;9.086;2023-04-23T10:02:58;4.35;;;1.10;;
71937;SDS011;59810;48.800;9.086;2023-04-23T10:05:26;2.65;;;1.17;;
71937;SDS011;59810;48.800;9.086;2023-04-23T10:07:52;2.63;;;0.93;;
71937;SDS011;59810;48.800;9.086;2023-04-23T10:10:20;3.33;;;1.10;;
71937;SDS011;59810;48.800;9.086;2023-04-23T10:12:49;2.78;;;1.00;;
71937;SDS011;59810;48.800;9.086;2023-04-23T10:15:17;3.47;;;1.20;;
71937;SDS011;59810;48.800;9.086;2023-04-23T10:17:43;2.47;;;1.10;;
71937;SDS011;59810;48.800;9.086;2023-04-23T10:20:11;2.40;;;1.00;;
71937;SDS011;59810;48.800;9.086;2023-04-23T10:22:37;2.78;;;1.00;;
71937;SDS011;59810;48.800;9.086;2023-04-23T10:25:08;2.37;;;0.97;;
71937;SDS011;59810;48.800;9.086;2023-04-23T10:27:39;2.28;;;1.05;;
71937;SDS011;59810;48.800;9.086;2023-04-23T10:30:10;2.65;;;1.10;;
71937;SDS011;59810;48.800;9.086;2023-04-23T10:32:37;2.05;;;0.90;;
71937;SDS011;59810;48.800;9.086;2023-04-23T10:35:06;2.17;;;0.90;;
71937;SDS011;59810;48.800;9.086;2023-04-23T10:37:36;2.93;;;1.00;;
71937;SDS011;59810;48.800;9.086;2023-04-23T10:40:12;2.20;;;0.90;;
71937;SDS011;59810;48.800;9.086;2023-04-23T10:42:39;2.33;;;1.00;;
71937;SDS011;59810;48.800;9.086;2023-04-23T10:45:14;2.33;;;0.90;;
71937;SDS011;59810;48.800;9.086;2023-04-23T10:47:43;3.50;;;1.00;;
71937;SDS011;59810;48.800;9.086;2023-04-23T10:50:18;2.97;;;0.90;;
71937;SDS011;59810;48.800;9.086;2023-04-23T10:52:48;5.68;;;0.90;;
71937;SDS011;59810;48.800;9.086;2023-04-23T10:55:18;2.20;;;1.10;;
71937;SDS011;59810;48.800;9.086;2023-04-23T10:57:58;2.83;;;1.00;;
71937;SDS011;59810;48.800;9.086;2023-04-23T11:00:27;1.77;;;0.82;;
71937;SDS011;59810;48.800;9.086;2023-04-23T11:03:29;1.80;;;0.90;;
71937;SDS011;59810;48.800;9.086;2023-04-23T11:06:04;2.92;;;0.88;;
71937;SDS011;59810;48.800;9.086;2023-04-23T11:08:30;2.78;;;0.82;;
71937;SDS011;59810;48.800;9.086;2023-04-23T11:10:58;2.47;;;0.80;;
71937;SDS011;59810;48.800;9.086;2023-04-23T11:13:26;2.08;;;1.10;;
71937;SDS011;59810;48.800;9.086;2023-04-23T11:16:15;2.57;;;0.83;;
71937;SDS011;59810;48.800;9.086;2023-04-23T11:18:53;1.90;;;0.70;;
71937;SDS011;59810;48.800;9.086;2023-04-23T11:24:41;2.72;;;0.90;;
71937;SDS011;59810;48.800;9.086;2023-04-23T11:27:08;2.22;;;0.90;;
71937;SDS011;59810;48.800;9.086;2023-04-23T11:29:37;2.27;;;1.00;;
71937;SDS011;59810;48.800;9.086;2023-04-23T11:32:04;2.13;;;0.80;;
71937;SDS011;59810;48.800;9.086;2023-04-23T11:34:34;1.77;;;0.80;;
71937;SDS011;59810;48.800;9.086;2023-04-23T11:37:01;1.83;;;0.85;;
71937;SDS011;59810;48.800;9.086;2023-04-23T11:39:26;2.10;;;0.80;;
71937;SDS011;59810;48.800;9.086;2023-04-23T11:41:52;2.25;;;0.90;;
71937;SDS011;59810;48.800;9.086;2023-04-23T11:44:21;1.80;;;0.80;;
71937;SDS011;59810;48.800;9.086;2023-04-23T11:46:47;3.03;;;0.90;;
71937;SDS011;59810;48.800;9.086;2023-04-23T11:49:14;2.20;;;0.90;;
71937;SDS011;59810;48.800;9.086;2023-04-23T11:51:45;4.22;;;0.90;;
71937;SDS011;59810;48.800;9.086;2023-04-23T11:54:12;2.03;;;0.90;;
71937;SDS011;59810;48.800;9.086;2023-04-23T11:56:41;2.80;;;0.90;;
71937;SDS011;59810;48.800;9.086;2023-04-23T11:59:06;2.20;;;0.85;;
71937;SDS011;59810;48.800;9.086;2023-04-23T12:01:38;2.13;;;0.88;;
71937;SDS011;59810;48.800;9.086;2023-04-23T12:04:15;1.70;;;0.80;;
71937;SDS011;59810;48.800;9.086;2023-04-23T12:06:44;1.80;;;0.80;;
71937;SDS011;59810;48.800;9.086;2023-04-23T12:09:13;2.45;;;0.80;;
71937;SDS011;59810;48.800;9.086;2023-04-23T12:11:41;2.47;;;0.90;;
71937;SDS011;59810;48.800;9.086;2023-04-23T12:14:08;2.75;;;0.80;;
71937;SDS011;59810;48.800;9.086;2023-04-23T12:19:00;2.23;;;0.80;;
71937;SDS011;59810;48.800;9.086;2023-04-23T12:21:25;2.93;;;1.10;;
71937;SDS011;59810;48.800;9.086;2023-04-23T12:23:53;2.25;;;0.80;;
71937;SDS011;59810;48.800;9.086;2023-04-23T12:26:20;2.58;;;1.00;;
71937;SDS011;59810;48.800;9.086;2023-04-23T12:31:17;4.40;;;1.30;;
71937;SDS011;59810;48.800;9.086;2023-04-23T12:33:43;2.60;;;1.10;;
71937;SDS011;59810;48.800;9.086;2023-04-23T12:36:14;2.25;;;0.90;;
71937;SDS011;59810;48.800;9.086;2023-04-23T12:38:40;2.50;;;0.90;;
71937;SDS011;59810;48.800;9.086;2023-04-23T12:41:06;3.17;;;1.05;;
71937;SDS011;59810;48.800;9.086;2023-04-23T12:43:34;2.27;;;0.77;;
71937;SDS011;59810;48.800;9.086;2023-04-23T12:46:00;2.38;;;1.00;;
71937;SDS011;59810;48.800;9.086;2023-04-23T12:48:25;2.57;;;1.10;;
71937;SDS011;59810;48.800;9.086;2023-04-23T12:50:51;2.10;;;1.03;;
71937;SDS011;59810;48.800;9.086;2023-04-23T12:53:18;3.53;;;1.10;;
71937;SDS011;59810;48.800;9.086;2023-04-23T12:55:46;2.20;;;1.10;;
71937;SDS011;59810;48.800;9.086;2023-04-23T12:58:12;2.53;;;0.85;;
71937;SDS011;59810;48.800;9.086;2023-04-23T13:00:37;1.80;;;0.87;;
71937;SDS011;59810;48.800;9.086;2023-04-23T13:03:03;2.63;;;1.00;;
71937;SDS011;59810;48.800;9.086;2023-04-23T13:05:28;2.15;;;0.90;;
71937;SDS011;59810;48.800;9.086;2023-04-23T13:07:54;2.23;;;1.00;;
71937;SDS011;59810;48.800;9.086;2023-04-23T13:10:19;3.13;;;1.30;;
71937;SDS011;59810;48.800;9.086;2023-04-23T13:12:47;3.38;;;0.90;;
71937;SDS011;59810;48.800;9.086;2023-04-23T13:15:12;2.00;;;1.00;;
71937;SDS011;59810;48.800;9.086;2023-04-23T13:17:37;2.87;;;1.17;;
71937;SDS011;59810;48.800;9.086;2023-04-23T13:20:03;1.70;;;0.80;;
71937;SDS011;59810;48.800;9.086;2023-04-23T13:22:29;2.75;;;1.13;;
71937;SDS011;59810;48.800;9.086;2023-04-23T13:24:57;3.10;;;1.02;;
71937;SDS011;59810;48.800;9.086;2023-04-23T13:27:25;2.08;;;0.90;;
71937;SDS011;59810;48.800;9.086;2023-04-23T13:29:53;3.57;;;1.07;;
71937;SDS011;59810;48.800;9.086;2023-04-23T13:32:18;1.75;;;1.00;;
71937;SDS011;59810;48.800;9.086;2023-04-23T13:34:44;1.80;;;1.10;;
71937;SDS011;59810;48.800;9.086;2023-04-23T13:37:09;3.50;;;1.43;;
71937;SDS011;59810;48.800;9.086;2023-04-23T13:39:37;2.63;;;1.13;;
71937;SDS011;59810;48.800;9.086;2023-04-23T13:42:05;2.53;;;1.10;;
71937;SDS011;59810;48.800;9.086;2023-04-23T13:44:33;2.40;;;1.20;;
71937;SDS011;59810;48.800;9.086;2023-04-23T13:46:58;2.80;;;1.30;;
71937;SDS011;59810;48.800;9.086;2023-04-23T13:49:24;2.40;;;1.20;;
71937;SDS011;59810;48.800;9.086;2023-04-23T13:51:50;2.75;;;1.08;;
71937;SDS011;59810;48.800;9.086;2023-04-23T13:54:18;4.90;;;1.35;;
71937;SDS011;59810;48.800;9.086;2023-04-23T13:56:43;3.08;;;1.40;;
71937;SDS011;59810;48.800;9.086;2023-04-23T13:59:09;1.77;;;0.93;;
71937;SDS011;59810;48.800;9.086;2023-04-23T14:01:34;3.17;;;1.00;;
71937;SDS011;59810;48.800;9.086;2023-04-23T14:04:00;2.60;;;1.07;;
71937;SDS011;59810;48.800;9.086;2023-04-23T14:06:25;2.67;;;1.20;;
71937;SDS011;59810;48.800;9.086;2023-04-23T14:08:51;2.10;;;1.00;;
71937;SDS011;59810;48.800;9.086;2023-04-23T14:11:19;3.60;;;1.20;;
71937;SDS011;59810;48.800;9.086;2023-04-23T14:13:46;3.88;;;1.25;;
71937;SDS011;59810;48.800;9.086;2023-04-23T14:16:11;2.93;;;0.90;;
71937;SDS011;59810;48.800;9.086;2023-04-23T14:18:36;2.93;;;1.20;;
71937;SDS011;59810;48.800;9.086;2023-04-23T14:21:02;3.08;;;1.05;;
71937;SDS011;59810;48.800;9.086;2023-04-23T14:26:07;2.40;;;0.90;;
71937;SDS011;59810;48.800;9.086;2023-04-23T14:28:43;2.27;;;1.07;;
71937;SDS011;59810;48.800;9.086;2023-04-23T14:31:10;2.17;;;0.80;;
71937;SDS011;59810;48.800;9.086;2023-04-23T14:33:35;2.08;;;0.98;;
71937;SDS011;59810;48.800;9.086;2023-04-23T14:36:00;3.03;;;1.23;;
71937;SDS011;59810;48.800;9.086;2023-04-23T14:38:26;2.47;;;1.20;;
71937;SDS011;59810;48.800;9.086;2023-04-23T14:40:51;2.77;;;0.87;;
71937;SDS011;59810;48.800;9.086;2023-04-23T14:43:17;2.38;;;1.00;;
71937;SDS011;59810;48.800;9.086;2023-04-23T14:45:43;2.03;;;0.87;;
71937;SDS011;59810;48.800;9.086;2023-04-23T14:48:08;3.05;;;1.23;;
71937;SDS011;59810;48.800;9.086;2023-04-23T14:50:33;3.10;;;1.10;;
71937;SDS011;59810;48.800;9.086;2023-04-23T14:52:59;3.97;;;1.23;;
71937;SDS011;59810;48.800;9.086;2023-04-23T14:55:25;3.17;;;1.08;;
71937;SDS011;59810;48.800;9.086;2023-04-23T14:57:51;3.00;;;1.00;;
71937;SDS011;59810;48.800;9.086;2023-04-23T15:00:16;4.30;;;0.90;;